Time;durP1;ratioP1;P1;durP2;ratioP2;P2;SDS_P1;SDS_P2;PMS_P1;PMS_P2;Temp;Humidity;BMP_temperature;BMP_pressure;BME280_temperature;BME280_humidity;BME280_pressure;Samples;Min_cycle;Max_cycle;Signal;HPM_P1;HPM_P2
2021/06/15 00:00:25;;;;;;;11.75;7.75;;;20.30;83.40;;;;;;5073413;28;20025;-71
2021/06/15 00:02:51;;;;;;;9.60;7.45;;;20.30;83.50;;;;;;5092434;28;20028;-71
2021/06/15 00:05:17;;;;;;;10.65;7.45;;;20.30;83.60;;;;;;5093594;28;20031;-71
2021/06/15 00:07:44;;;;;;;9.98;7.45;;;20.30;83.70;;;;;;5081247;28;20067;-71
2021/06/15 00:10:14;;;;;;;10.73;7.65;;;20.30;83.80;;;;;;5093494;28;20036;-71
2021/06/15 00:12:40;;;;;;;8.70;7.70;;;20.30;84.00;;;;;;5093420;28;20024;-71
2021/06/15 00:15:08;;;;;;;9.75;7.88;;;20.30;84.10;;;;;;5093709;28;20031;-71
2021/06/15 00:17:34;;;;;;;9.38;7.30;;;20.30;84.20;;;;;;5075037;28;20036;-71
2021/06/15 00:20:00;;;;;;;9.93;7.75;;;20.30;84.30;;;;;;5072614;28;20458;-71
2021/06/15 00:22:26;;;;;;;8.77;7.80;;;20.30;84.40;;;;;;5073506;28;20462;-71
2021/06/15 00:24:52;;;;;;;9.48;7.82;;;20.20;84.50;;;;;;5072901;28;20024;-71
2021/06/15 00:27:17;;;;;;;10.88;8.80;;;20.20;84.50;;;;;;5073188;28;20455;-71
2021/06/15 00:29:43;;;;;;;9.70;7.68;;;20.20;84.60;;;;;;5088728;28;20039;-71
2021/06/15 00:32:09;;;;;;;12.05;8.00;;;20.20;84.60;;;;;;5073038;28;20029;-71
2021/06/15 00:34:35;;;;;;;12.27;8.45;;;20.20;84.80;;;;;;5071691;28;20020;-71
2021/06/15 00:37:00;;;;;;;12.00;8.73;;;20.20;84.90;;;;;;5073030;28;20382;-71
2021/06/15 00:39:26;;;;;;;13.00;8.77;;;20.10;85.00;;;;;;5072765;28;20039;-71
2021/06/15 00:41:52;;;;;;;11.60;8.50;;;20.10;85.10;;;;;;5069522;28;20033;-72
2021/06/15 00:44:17;;;;;;;12.25;8.25;;;20.10;85.30;;;;;;5072775;28;20128;-71
2021/06/15 00:46:43;;;;;;;10.55;8.30;;;20.10;85.30;;;;;;5073015;28;20029;-71
2021/06/15 00:49:09;;;;;;;9.95;8.90;;;20.10;85.40;;;;;;5072795;28;20090;-71
2021/06/15 00:51:37;;;;;;;10.75;8.07;;;20.10;85.50;;;;;;5073132;28;20426;-71
2021/06/15 00:54:03;;;;;;;10.60;8.23;;;20.10;85.60;;;;;;5072731;28;20029;-71
2021/06/15 00:56:29;;;;;;;10.43;8.00;;;20.10;85.60;;;;;;5072979;28;20089;-71
2021/06/15 00:58:54;;;;;;;11.18;8.15;;;20.00;85.60;;;;;;5072504;28;20036;-71
2021/06/15 01:01:20;;;;;;;11.55;8.52;;;20.10;85.70;;;;;;5071802;28;20033;-71
2021/06/15 01:03:47;;;;;;;9.15;7.88;;;20.00;85.70;;;;;;5072791;28;20448;-71
2021/06/15 01:06:17;;;;;;;9.00;8.05;;;20.10;85.70;;;;;;5077767;28;20386;-71
2021/06/15 01:08:55;;;;;;;10.43;8.25;;;20.00;85.60;;;;;;5085253;28;20090;-71
2021/06/15 01:11:50;;;;;;;13.57;8.07;;;20.00;85.60;;;;;;5093044;28;20073;-71
2021/06/15 01:14:26;;;;;;;10.90;7.90;;;20.00;85.50;;;;;;5070561;28;20040;-71
2021/06/15 01:17:02;;;;;;;8.82;7.80;;;20.00;85.50;;;;;;5093567;28;20024;-71
2021/06/15 01:19:43;;;;;;;10.10;8.52;;;20.00;85.40;;;;;;5096320;28;20032;-71
2021/06/15 01:22:23;;;;;;;10.93;8.80;;;20.00;85.40;;;;;;5096628;28;20024;-71
2021/06/15 01:25:22;;;;;;;10.43;8.63;;;20.00;85.30;;;;;;5096293;28;20509;-71
2021/06/15 01:27:56;;;;;;;10.45;8.23;;;20.00;85.40;;;;;;5076580;28;20021;-71
2021/06/15 01:30:26;;;;;;;9.38;8.35;;;20.00;85.50;;;;;;5064496;28;20027;-71
2021/06/15 01:32:58;;;;;;;12.82;8.13;;;20.00;86.30;;;;;;5063686;28;20082;-71
2021/06/15 01:35:27;;;;;;;12.25;8.65;;;20.00;85.90;;;;;;5063789;28;20051;-71
2021/06/15 01:38:11;;;;;;;9.98;8.20;;;20.00;85.90;;;;;;5063184;28;20056;-71
2021/06/15 01:41:06;;;;;;;10.52;8.25;;;20.00;85.90;;;;;;5065087;28;20029;-71
2021/06/15 01:43:47;;;;;;;12.80;8.82;;;20.00;85.80;;;;;;5064321;28;20064;-72
2021/06/15 01:46:16;;;;;;;10.85;8.80;;;20.00;85.80;;;;;;5065415;28;20024;-71
2021/06/15 01:48:46;;;;;;;11.98;8.40;;;20.00;85.70;;;;;;5065076;28;20045;-71
2021/06/15 01:51:13;;;;;;;9.52;8.43;;;20.00;86.30;;;;;;5064021;28;20457;-71
2021/06/15 01:54:11;;;;;;;13.15;9.52;;;20.10;85.90;;;;;;5063472;28;20513;-71
2021/06/15 01:56:39;;;;;;;10.38;8.90;;;20.10;85.80;;;;;;5064742;28;20103;-71
2021/06/15 01:59:07;;;;;;;11.38;8.63;;;20.10;85.80;;;;;;5063183;28;20036;-71
2021/06/15 02:01:45;;;;;;;12.52;9.88;;;20.10;85.90;;;;;;5064320;28;20063;-71
2021/06/15 02:04:12;;;;;;;15.18;8.90;;;20.10;86.40;;;;;;5063737;28;20016;-72
2021/06/15 02:06:43;;;;;;;11.27;8.63;;;20.20;86.10;;;;;;5063654;28;20090;-71
2021/06/15 02:09:10;;;;;;;10.77;8.27;;;20.20;86.20;;;;;;5063204;28;20124;-71
2021/06/15 02:11:36;;;;;;;10.20;8.88;;;20.20;86.30;;;;;;5063831;28;20359;-71
2021/06/15 02:14:04;;;;;;;13.00;8.88;;;20.20;86.30;;;;;;5065002;28;20121;-72
2021/06/15 02:16:31;;;;;;;9.98;8.98;;;20.20;86.40;;;;;;5064310;28;20068;-74
2021/06/15 02:18:57;;;;;;;10.50;8.93;;;20.30;86.40;;;;;;5064316;28;20029;-72
2021/06/15 02:21:24;;;;;;;12.30;9.52;;;20.30;86.50;;;;;;5059822;28;20425;-72
2021/06/15 02:23:56;;;;;;;11.73;8.93;;;20.30;86.30;;;;;;5064225;28;20024;-73
2021/06/15 02:26:26;;;;;;;12.43;8.63;;;20.30;85.90;;;;;;5064615;28;20021;-71
2021/06/15 02:28:52;;;;;;;14.25;9.82;;;20.30;85.50;;;;;;5062564;28;20087;-72
2021/06/15 02:31:26;;;;;;;10.45;9.23;;;20.30;85.60;;;;;;5062902;28;20028;-71
2021/06/15 02:33:55;;;;;;;10.13;9.23;;;20.30;85.70;;;;;;5054645;28;20040;-72
2021/06/15 02:36:31;;;;;;;13.38;10.05;;;20.30;85.80;;;;;;5054968;28;20116;-71
2021/06/15 02:39:10;;;;;;;13.52;9.07;;;20.30;86.00;;;;;;5054783;28;20036;-72
2021/06/15 02:41:39;;;;;;;11.98;9.30;;;20.40;86.70;;;;;;5053367;28;20054;-70
2021/06/15 02:44:06;;;;;;;11.07;8.80;;;20.40;86.10;;;;;;5055025;28;20360;-72
2021/06/15 02:46:34;;;;;;;12.38;9.18;;;20.40;86.10;;;;;;5054619;28;20123;-72
2021/06/15 02:49:05;;;;;;;12.63;9.20;;;20.40;85.90;;;;;;5054536;28;20090;-74
2021/06/15 02:51:34;;;;;;;10.73;9.38;;;20.50;85.80;;;;;;5055357;28;20036;-72
2021/06/15 02:54:21;;;;;;;11.45;8.80;;;20.50;85.60;;;;;;5054116;28;20062;-75
2021/06/15 02:56:51;;;;;;;11.55;8.73;;;20.60;85.40;;;;;;5054358;28;20036;-72
2021/06/15 02:59:18;;;;;;;11.18;8.90;;;20.60;85.30;;;;;;5054356;28;20025;-72
2021/06/15 03:01:48;;;;;;;10.35;9.02;;;20.60;85.10;;;;;;5053339;28;20032;-72
2021/06/15 03:04:15;;;;;;;11.50;9.20;;;20.70;85.10;;;;;;5054338;28;20025;-72
2021/06/15 03:06:42;;;;;;;10.85;9.00;;;20.70;84.90;;;;;;5054589;28;20033;-73
2021/06/15 03:09:07;;;;;;;11.55;8.32;;;20.70;84.80;;;;;;5054585;28;20037;-72
2021/06/15 03:11:37;;;;;;;18.10;9.70;;;20.80;84.70;;;;;;5052803;28;20378;-72
2021/06/15 03:14:25;;;;;;;10.30;8.60;;;20.80;84.60;;;;;;5054733;28;20029;-72
2021/06/15 03:16:56;;;;;;;11.98;8.95;;;20.80;84.40;;;;;;5054512;28;20028;-72
2021/06/15 03:19:40;;;;;;;10.57;8.65;;;20.90;84.10;;;;;;5054116;28;20107;-72
2021/06/15 03:22:15;;;;;;;11.65;9.00;;;20.90;83.80;;;;;;5053938;28;20497;-72
2021/06/15 03:24:45;;;;;;;11.55;8.68;;;20.90;83.60;;;;;;5054168;28;20455;-72
2021/06/15 03:27:13;;;;;;;13.00;9.15;;;21.00;83.50;;;;;;5053890;28;20032;-72
2021/06/15 03:29:40;;;;;;;11.75;9.95;;;21.00;84.00;;;;;;5053952;28;20470;-72
2021/06/15 03:32:12;;;;;;;10.63;9.05;;;21.10;83.20;;;;;;5053507;28;20454;-72
2021/06/15 03:34:44;;;;;;;11.93;9.13;;;21.10;83.00;;;;;;5053811;28;20103;-72
2021/06/15 03:37:23;;;;;;;11.02;9.10;;;21.10;82.80;;;;;;5053641;28;20029;-73
2021/06/15 03:39:52;;;;;;;10.63;8.95;;;21.20;82.60;;;;;;5053551;28;20138;-72
2021/06/15 03:42:21;;;;;;;12.30;9.25;;;21.20;82.40;;;;;;5052724;28;20116;-72
2021/06/15 03:45:01;;;;;;;10.35;9.00;;;21.30;82.30;;;;;;5053516;28;20048;-71
2021/06/15 03:47:29;;;;;;;9.65;8.65;;;21.30;82.00;;;;;;5053438;28;20402;-71
2021/06/15 03:49:56;;;;;;;10.52;9.02;;;21.30;81.70;;;;;;5053735;28;20052;-72
2021/06/15 03:52:23;;;;;;;11.50;8.50;;;21.40;81.50;;;;;;5053462;28;20108;-72
2021/06/15 03:54:50;;;;;;;12.15;8.75;;;21.40;81.30;;;;;;5053232;28;20029;-72
2021/06/15 03:57:16;;;;;;;11.82;9.10;;;21.50;81.10;;;;;;5053503;28;20031;-72
2021/06/15 03:59:43;;;;;;;10.30;8.88;;;21.50;80.80;;;;;;5052389;28;20475;-71
2021/06/15 04:02:11;;;;;;;10.95;8.95;;;21.60;80.60;;;;;;5053257;28;20033;-72
2021/06/15 04:04:42;;;;;;;11.27;9.07;;;21.60;80.40;;;;;;5053327;28;20024;-73
2021/06/15 04:07:14;;;;;;;9.57;8.65;;;21.70;80.10;;;;;;5053151;28;20070;-74
2021/06/15 04:09:40;;;;;;;11.45;8.77;;;21.80;79.80;;;;;;5052896;28;20048;-73
2021/06/15 04:12:07;;;;;;;14.85;10.45;;;21.80;79.50;;;;;;5051580;28;20021;-74
2021/06/15 04:14:35;;;;;;;10.30;8.70;;;21.90;79.40;;;;;;5052957;28;20025;-72
2021/06/15 04:17:01;;;;;;;9.48;8.57;;;21.90;79.10;;;;;;5053072;28;20039;-72
2021/06/15 04:19:47;;;;;;;11.02;9.23;;;22.00;79.00;;;;;;5053194;28;20061;-72
2021/06/15 04:22:15;;;;;;;11.68;9.27;;;22.00;78.70;;;;;;5066274;28;20116;-73
2021/06/15 04:24:51;;;;;;;12.55;9.45;;;22.10;78.50;;;;;;5082244;28;20024;-72
2021/06/15 04:27:22;;;;;;;10.27;9.27;;;22.10;78.10;;;;;;5093339;28;20028;-72
2021/06/15 04:29:48;;;;;;;10.45;9.35;;;22.20;78.00;;;;;;5083979;28;20033;-72
2021/06/15 04:32:18;;;;;;;10.63;8.35;;;22.20;77.70;;;;;;5088539;28;20382;-74
2021/06/15 04:34:58;;;;;;;12.95;9.02;;;22.30;77.40;;;;;;5073112;28;20394;-73
2021/06/15 04:37:25;;;;;;;10.25;9.15;;;22.30;77.20;;;;;;5073065;28;20020;-72
2021/06/15 04:40:03;;;;;;;11.07;8.98;;;22.40;77.00;;;;;;5090895;28;20066;-72
2021/06/15 04:42:42;;;;;;;12.80;8.15;;;22.50;76.50;;;;;;5092943;28;20048;-71
2021/06/15 04:45:09;;;;;;;11.65;9.50;;;22.50;76.20;;;;;;5092742;28;20032;-72
2021/06/15 04:47:46;;;;;;;11.27;9.45;;;22.50;76.00;;;;;;5084208;28;20029;-72
2021/06/15 04:50:14;;;;;;;9.82;8.82;;;22.60;75.80;;;;;;5085675;28;20142;-72
2021/06/15 04:52:45;;;;;;;12.95;9.27;;;22.70;75.70;;;;;;5064967;28;20021;-73
2021/06/15 04:55:12;;;;;;;11.30;9.15;;;22.70;75.40;;;;;;5066108;28;20021;-72
2021/06/15 04:57:41;;;;;;;11.32;10.05;;;22.80;75.30;;;;;;5065087;28;20017;-72
2021/06/15 05:00:07;;;;;;;15.05;9.55;;;22.80;75.10;;;;;;5065438;28;20025;-73
2021/06/15 05:02:37;;;;;;;10.38;9.38;;;22.90;75.20;;;;;;5065252;28;20056;-72
2021/06/15 05:05:05;;;;;;;11.70;9.38;;;22.90;74.90;;;;;;5066835;28;20048;-75
2021/06/15 05:07:31;;;;;;;11.02;9.88;;;23.00;74.80;;;;;;5070445;28;20032;-71
2021/06/15 05:10:04;;;;;;;10.55;9.43;;;23.00;74.60;;;;;;5063093;28;20044;-72
2021/06/15 05:12:36;;;;;;;10.13;8.93;;;23.00;74.60;;;;;;5065325;28;20025;-72
2021/06/15 05:15:09;;;;;;;12.50;9.55;;;23.00;74.50;;;;;;5067405;28;20025;-76
2021/06/15 05:17:35;;;;;;;10.38;9.07;;;23.10;74.50;;;;;;5065900;28;20091;-73
2021/06/15 05:20:04;;;;;;;13.38;8.93;;;23.10;74.30;;;;;;5064675;28;20021;-72
2021/06/15 05:22:46;;;;;;;9.85;8.95;;;23.20;74.30;;;;;;5073736;28;20043;-72
2021/06/15 05:25:16;;;;;;;10.38;9.32;;;23.20;74.10;;;;;;5069151;28;20071;-72
2021/06/15 05:27:42;;;;;;;11.60;9.27;;;23.30;74.00;;;;;;5055784;28;20389;-72
2021/06/15 05:30:09;;;;;;;12.68;8.98;;;23.40;73.80;;;;;;5056154;28;20033;-73
2021/06/15 05:32:34;;;;;;;10.65;9.55;;;23.50;73.60;;;;;;5055392;28;20055;-71
2021/06/15 05:35:01;;;;;;;11.95;9.80;;;23.60;73.40;;;;;;5054484;28;20033;-71
2021/06/15 05:37:27;;;;;;;14.15;9.85;;;23.60;73.10;;;;;;5055536;28;20036;-71
2021/06/15 05:39:56;;;;;;;14.52;9.07;;;23.60;72.90;;;;;;5055621;28;20025;-71
2021/06/15 05:42:22;;;;;;;15.82;9.32;;;23.70;72.80;;;;;;5055669;28;20383;-72
2021/06/15 05:44:48;;;;;;;12.18;9.98;;;23.80;72.60;;;;;;5056087;28;20036;-72
2021/06/15 05:47:13;;;;;;;13.57;9.40;;;23.90;72.30;;;;;;5055447;28;20029;-72
2021/06/15 05:49:39;;;;;;;10.80;9.23;;;23.90;71.90;;;;;;5053932;28;20044;-72
2021/06/15 05:52:08;;;;;;;10.55;9.35;;;24.00;71.90;;;;;;5055521;28;20066;-71
2021/06/15 05:54:34;;;;;;;12.60;9.30;;;24.10;71.70;;;;;;5055541;28;20056;-72
2021/06/15 05:57:01;;;;;;;11.20;10.00;;;24.20;71.50;;;;;;5054257;28;20036;-72
2021/06/15 05:59:26;;;;;;;9.63;8.68;;;24.20;71.40;;;;;;5055197;28;20029;-73
2021/06/15 06:01:52;;;;;;;12.98;8.85;;;24.20;71.40;;;;;;5055402;28;20378;-72
2021/06/15 06:04:22;;;;;;;14.73;9.50;;;24.20;71.30;;;;;;5054000;28;20486;-71
2021/06/15 06:09:35;;;;;;;13.70;9.48;;;24.30;71.10;;;;;;5055190;28;20533;-72
2021/06/15 06:12:01;;;;;;;10.63;9.52;;;24.40;71.10;;;;;;5055347;28;20025;-71
2021/06/15 06:14:26;;;;;;;13.90;9.85;;;24.40;70.90;;;;;;5055028;28;20025;-71
2021/06/15 06:16:53;;;;;;;11.63;9.80;;;24.50;70.80;;;;;;5054818;28;20058;-71
2021/06/15 06:19:19;;;;;;;10.75;9.10;;;24.50;70.70;;;;;;5054638;28;20482;-71
2021/06/15 06:21:45;;;;;;;11.50;9.18;;;24.50;70.80;;;;;;5053780;28;20383;-71
2021/06/15 06:24:12;;;;;;;10.60;9.35;;;24.70;70.80;;;;;;5054870;28;20033;-71
2021/06/15 06:26:39;;;;;;;11.25;9.45;;;24.70;70.60;;;;;;5054858;28;20524;-71
2021/06/15 06:29:05;;;;;;;10.82;9.10;;;24.80;70.30;;;;;;5054912;28;20084;-72
2021/06/15 06:31:31;;;;;;;11.07;9.52;;;24.90;70.30;;;;;;5054472;28;20029;-71
2021/06/15 06:33:56;;;;;;;11.27;8.80;;;24.90;70.30;;;;;;5054286;28;20028;-72
2021/06/15 06:36:22;;;;;;;14.23;10.02;;;25.00;70.30;;;;;;5054613;28;20025;-71
2021/06/15 06:38:49;;;;;;;9.93;8.93;;;25.10;70.30;;;;;;5054694;28;20032;-71
2021/06/15 06:41:15;;;;;;;9.82;8.93;;;25.20;70.00;;;;;;5054466;28;20032;-70
2021/06/15 06:43:41;;;;;;;10.75;8.98;;;25.30;69.90;;;;;;5054366;28;20441;-71
2021/06/15 06:46:07;;;;;;;12.07;9.15;;;25.40;69.80;;;;;;5054411;28;20024;-72
2021/06/15 06:48:33;;;;;;;10.30;9.27;;;25.50;69.80;;;;;;5052595;28;20059;-72
2021/06/15 06:50:59;;;;;;;10.10;9.02;;;25.60;69.70;;;;;;5054250;28;20029;-71
2021/06/15 06:53:25;;;;;;;11.40;9.13;;;25.70;69.60;;;;;;5054563;28;20021;-73
2021/06/15 06:55:50;;;;;;;12.20;8.98;;;25.70;69.40;;;;;;5054367;28;20025;-72
2021/06/15 06:58:16;;;;;;;9.93;8.93;;;25.80;69.10;;;;;;5053944;28;20028;-73
2021/06/15 07:00:42;;;;;;;9.32;8.43;;;25.90;69.10;;;;;;5053698;28;20017;-73
2021/06/15 07:03:08;;;;;;;12.23;9.15;;;26.00;68.90;;;;;;5072691;28;20032;-71
2021/06/15 07:05:33;;;;;;;10.77;9.00;;;26.10;68.90;;;;;;5073819;28;20017;-72
2021/06/15 07:07:59;;;;;;;10.10;9.10;;;26.10;68.80;;;;;;5070648;28;20033;-72
2021/06/15 07:10:25;;;;;;;9.75;8.70;;;26.20;68.70;;;;;;5082791;28;20082;-72
2021/06/15 07:12:51;;;;;;;9.93;8.52;;;26.30;68.40;;;;;;5076623;28;20054;-73
2021/06/15 07:15:17;;;;;;;16.95;8.05;;;26.40;68.30;;;;;;5069299;28;20039;-72
2021/06/15 07:17:43;;;;;;;9.73;8.60;;;26.50;68.20;;;;;;5073633;28;20496;-71
2021/06/15 07:20:10;;;;;;;11.52;8.50;;;26.60;67.90;;;;;;5071830;28;20032;-72
2021/06/15 07:22:37;;;;;;;10.20;8.50;;;26.70;67.80;;;;;;5073418;28;20035;-71
2021/06/15 07:25:04;;;;;;;8.55;7.75;;;26.80;67.40;;;;;;5072501;28;20090;-72
2021/06/15 07:27:30;;;;;;;8.30;7.47;;;26.90;67.20;;;;;;5072502;28;20033;-72
2021/06/15 07:29:57;;;;;;;8.38;7.45;;;27.00;67.00;;;;;;5071307;28;20391;-76
2021/06/15 07:32:22;;;;;;;8.77;7.35;;;27.10;66.70;;;;;;5069332;28;20020;-73
2021/06/15 07:34:48;;;;;;;8.60;7.25;;;27.20;66.60;;;;;;5073543;28;20418;-74
2021/06/15 07:37:14;;;;;;;8.02;7.18;;;27.30;66.00;;;;;;5070369;28;20024;-72
2021/06/15 07:39:40;;;;;;;7.78;6.63;;;27.30;65.50;;;;;;5073228;28;20347;-72
2021/06/15 07:42:06;;;;;;;7.60;6.55;;;27.40;65.20;;;;;;5070443;28;20035;-72
2021/06/15 07:44:32;;;;;;;7.18;6.50;;;27.50;64.80;;;;;;5073434;28;20394;-72
2021/06/15 07:46:58;;;;;;;9.55;6.68;;;27.60;64.70;;;;;;5071670;28;20024;-73
2021/06/15 07:49:24;;;;;;;8.40;6.28;;;27.60;64.00;;;;;;5069455;28;20084;-71
2021/06/15 07:51:50;;;;;;;7.70;6.03;;;27.70;64.00;;;;;;5073386;28;20052;-71
2021/06/15 07:54:16;;;;;;;6.93;5.57;;;27.80;63.50;;;;;;5071721;28;20032;-72
2021/06/15 07:56:42;;;;;;;5.95;5.35;;;27.80;63.90;;;;;;5073645;28;20439;-71
2021/06/15 07:59:08;;;;;;;7.32;5.43;;;27.90;63.40;;;;;;5081082;28;20035;-75
2021/06/15 08:01:33;;;;;;;7.30;4.80;;;28.00;63.00;;;;;;5091443;28;20042;-72
2021/06/15 08:03:59;;;;;;;6.00;4.75;;;28.10;62.40;;;;;;5092903;28;20028;-72
2021/06/15 08:06:25;;;;;;;8.13;4.78;;;28.20;62.10;;;;;;5091744;28;20016;-72
2021/06/15 08:08:51;;;;;;;6.88;4.90;;;28.30;61.70;;;;;;5093008;28;20075;-72
2021/06/15 08:11:17;;;;;;;5.95;4.35;;;28.40;61.40;;;;;;5090626;28;20134;-73
2021/06/15 08:13:42;;;;;;;5.75;4.35;;;28.50;60.40;;;;;;5093542;28;20024;-71
2021/06/15 08:16:08;;;;;;;6.15;4.40;;;28.60;59.90;;;;;;5077564;28;20541;-73
2021/06/15 08:18:34;;;;;;;5.13;4.63;;;28.80;59.60;;;;;;5073436;28;20032;-71
2021/06/15 08:21:00;;;;;;;4.70;4.28;;;28.90;60.00;;;;;;5072121;28;20111;-72
2021/06/15 08:23:27;;;;;;;7.03;4.97;;;29.00;58.80;;;;;;5072527;28;20028;-72
2021/06/15 08:25:54;;;;;;;6.43;4.38;;;29.20;58.30;;;;;;5055497;28;20035;-71
2021/06/15 08:28:21;;;;;;;6.25;4.40;;;29.40;58.10;;;;;;5055653;28;20367;-72
2021/06/15 08:30:47;;;;;;;5.57;4.65;;;29.50;57.80;;;;;;5056725;28;20021;-78
2021/06/15 08:33:12;;;;;;;6.28;5.10;;;29.70;57.50;;;;;;5071307;28;20024;-74
2021/06/15 08:35:39;;;;;;;4.85;4.40;;;29.90;57.40;;;;;;5076862;28;20481;-70
2021/06/15 08:38:05;;;;;;;4.80;4.20;;;30.00;56.80;;;;;;5075123;28;20033;-73
2021/06/15 08:40:31;;;;;;;6.88;4.80;;;30.20;56.50;;;;;;5076617;28;20093;-73
2021/06/15 08:42:57;;;;;;;4.65;4.22;;;30.50;56.80;;;;;;5073293;28;20466;-73
2021/06/15 08:45:24;;;;;;;5.75;4.78;;;30.70;55.90;;;;;;5076395;28;20025;-72
2021/06/15 08:47:51;;;;;;;7.82;4.53;;;30.80;56.20;;;;;;5075689;28;20185;-80
2021/06/15 08:50:21;;;;;;;7.28;4.43;;;31.10;55.30;;;;;;5076575;28;20382;-72
2021/06/15 08:52:48;;;;;;;7.93;4.72;;;31.30;55.00;;;;;;5076445;28;20017;-72
2021/06/15 08:55:15;;;;;;;5.07;4.60;;;31.60;54.70;;;;;;5074939;28;20085;-73
2021/06/15 08:57:44;;;;;;;5.28;4.60;;;31.80;54.20;;;;;;5076308;28;20158;-73
2021/06/15 09:00:12;;;;;;;12.40;4.93;;;32.00;53.90;;;;;;5074609;28;20024;-73
2021/06/15 09:02:56;;;;;;;6.78;4.53;;;32.30;53.40;;;;;;5076584;28;20051;-73
2021/06/15 09:05:21;;;;;;;7.65;4.90;;;32.60;53.30;;;;;;5073646;28;20381;-73
2021/06/15 09:08:08;;;;;;;10.20;4.65;;;32.90;52.90;;;;;;5075941;28;20035;-72
2021/06/15 09:10:38;;;;;;;12.75;4.88;;;33.20;52.30;;;;;;5074769;28;20507;-73
2021/06/15 09:13:05;;;;;;;7.60;4.50;;;33.50;51.80;;;;;;5076422;28;20428;-72
2021/06/15 09:15:32;;;;;;;5.13;4.35;;;33.70;50.90;;;;;;5074310;28;20020;-73
2021/06/15 09:17:59;;;;;;;13.82;4.85;;;34.00;50.50;;;;;;5075300;28;20021;-73
2021/06/15 09:20:31;;;;;;;4.85;4.45;;;34.30;49.90;;;;;;5076265;28;20044;-72
2021/06/15 09:23:11;;;;;;;8.57;4.88;;;34.60;49.20;;;;;;5070594;28;20029;-72
2021/06/15 09:25:37;;;;;;;8.40;4.60;;;35.00;49.00;;;;;;5076032;28;20032;-71
2021/06/15 09:28:22;;;;;;;4.60;4.20;;;35.30;48.70;;;;;;5068899;28;20429;-72
2021/06/15 09:30:56;;;;;;;8.45;4.38;;;35.70;48.50;;;;;;5056036;28;20040;-72
2021/06/15 09:33:44;;;;;;;5.50;4.40;;;36.20;47.80;;;;;;5054567;28;20083;-72
2021/06/15 09:36:13;;;;;;;6.22;4.28;;;36.50;46.90;;;;;;5055305;28;20028;-73
2021/06/15 09:39:01;;;;;;;6.88;4.15;;;36.90;46.60;;;;;;5054964;28;20033;-72
2021/06/15 09:41:33;;;;;;;7.75;4.10;;;37.40;46.10;;;;;;5055271;28;20485;-73
2021/06/15 09:44:26;;;;;;;5.13;4.20;;;37.80;45.40;;;;;;5055659;28;20108;-72
2021/06/15 09:46:56;;;;;;;7.65;3.72;;;38.30;44.60;;;;;;5055769;28;20017;-72
2021/06/15 09:49:31;;;;;;;3.97;3.67;;;38.90;44.40;;;;;;5055445;28;20045;-73
2021/06/15 09:52:17;;;;;;;3.95;3.40;;;39.40;43.20;;;;;;5061256;28;20108;-74
2021/06/15 09:54:58;;;;;;;3.47;3.17;;;40.10;42.80;;;;;;5074993;28;20033;-73
2021/06/15 09:57:28;;;;;;;3.60;3.30;;;40.80;42.20;;;;;;5088032;28;20047;-73
2021/06/15 10:00:03;;;;;;;7.38;3.58;;;41.40;41.60;;;;;;5089756;28;20032;-72
2021/06/15 10:02:29;;;;;;;4.25;3.70;;;42.10;40.20;;;;;;5075106;28;20056;-72
2021/06/15 10:04:56;;;;;;;5.57;3.33;;;42.70;39.80;;;;;;5073947;28;20032;-74
2021/06/15 10:07:29;;;;;;;6.22;3.67;;;43.20;38.90;;;;;;5081746;28;20024;-72
2021/06/15 10:09:56;;;;;;;4.10;3.47;;;43.60;38.10;;;;;;5074072;28;20085;-73
2021/06/15 10:12:23;;;;;;;5.18;3.60;;;44.00;38.60;;;;;;5077024;28;20047;-74
2021/06/15 10:14:52;;;;;;;5.93;3.47;;;44.30;38.10;;;;;;5081476;28;20024;-74
2021/06/15 10:17:18;;;;;;;6.75;3.33;;;44.70;36.90;;;;;;5072117;28;20060;-74
2021/06/15 10:19:44;;;;;;;9.85;3.45;;;45.10;36.70;;;;;;5072162;28;20036;-74
2021/06/15 10:22:11;;;;;;;4.03;3.13;;;45.40;36.40;;;;;;5074956;28;20531;-72
2021/06/15 10:24:37;;;;;;;5.65;3.50;;;45.60;35.90;;;;;;5071595;28;20881;-73
2021/06/15 10:27:08;;;;;;;5.40;3.30;;;45.90;35.40;;;;;;5075011;28;20079;-72
2021/06/15 10:29:37;;;;;;;3.55;3.28;;;46.20;35.00;;;;;;5073639;28;20124;-73
2021/06/15 10:32:12;;;;;;;3.95;3.35;;;46.40;34.90;;;;;;5074151;28;20024;-72
2021/06/15 10:35:13;;;;;;;3.60;3.30;;;46.50;34.50;;;;;;5072574;28;20070;-73
2021/06/15 10:37:41;;;;;;;12.60;3.60;;;46.60;34.30;;;;;;5074597;28;20032;-73
2021/06/15 10:40:13;;;;;;;7.70;4.00;;;46.80;34.30;;;;;;5072443;28;20031;-72
2021/06/15 10:42:39;;;;;;;;;;;47.00;34.10;;;;;;5074933;28;20048;-74
2021/06/15 10:45:16;;;;;;;6.05;3.17;;;47.00;35.10;;;;;;5073372;28;19915;-73
2021/06/15 10:48:05;;;;;;;3.47;3.13;;;47.20;34.30;;;;;;5073731;28;20044;-73
2021/06/15 10:50:40;;;;;;;5.80;3.28;;;47.50;33.90;;;;;;5071620;28;20042;-74
2021/06/15 10:53:11;;;;;;;4.90;3.30;;;47.70;33.70;;;;;;5074020;28;20052;-74
2021/06/15 10:55:45;;;;;;;3.00;2.80;;;47.70;33.30;;;;;;5067286;28;20110;-78
2021/06/15 10:58:10;;;;;;;3.00;2.70;;;47.90;33.20;;;;;;5063943;28;20028;-72
2021/06/15 11:00:49;;;;;;;9.27;3.53;;;48.10;33.10;;;;;;5062952;28;20036;-72
2021/06/15 11:03:19;;;;;;;3.40;3.10;;;48.30;32.70;;;;;;5058324;28;20016;-73
2021/06/15 11:05:52;;;;;;;3.25;2.95;;;48.30;32.50;;;;;;5054183;28;20469;-72
2021/06/15 11:08:58;;;;;;;3.42;2.70;;;48.50;32.40;;;;;;5070965;28;20142;-82
2021/06/15 11:11:24;;;;;;;3.33;3.13;;;48.60;32.20;;;;;;5082943;28;20132;-74
2021/06/15 11:13:55;;;;;;;6.97;3.10;;;48.70;32.40;;;;;;5094175;28;20111;-77
2021/06/15 11:16:38;;;;;;;3.63;3.13;;;48.70;32.00;;;;;;5084046;28;20028;-74
2021/06/15 11:19:13;;;;;;;;;;;48.70;31.70;;;;;;5054353;28;20029;-73
2021/06/15 11:21:47;;;;;;;5.22;3.03;;;48.70;32.60;;;;;;5047398;28;19935;-73
2021/06/15 11:24:36;;;;;;;3.95;3.00;;;48.90;31.90;;;;;;5053169;28;20480;-73
2021/06/15 11:27:16;;;;;;;3.20;2.90;;;49.00;31.70;;;;;;5051897;28;20048;-73
2021/06/15 11:29:44;;;;;;;3.28;2.97;;;49.20;31.40;;;;;;5053721;28;20028;-73
2021/06/15 11:32:29;;;;;;;2.97;2.78;;;49.20;31.20;;;;;;5050984;28;20068;-74
2021/06/15 11:34:55;;;;;;;6.47;3.08;;;49.20;31.00;;;;;;5052972;28;20585;-73
2021/06/15 11:37:48;;;;;;;8.43;3.30;;;49.20;31.20;;;;;;5079931;28;20115;-74
2021/06/15 11:40:18;;;;;;;3.15;2.90;;;49.30;30.90;;;;;;5090183;28;20064;-72
2021/06/15 11:42:56;;;;;;;3.97;2.97;;;49.40;31.00;;;;;;5093584;28;20036;-73
2021/06/15 11:45:31;;;;;;;3.30;3.03;;;49.50;30.90;;;;;;5089711;28;20031;-74
2021/06/15 11:48:14;;;;;;;3.28;2.97;;;49.50;30.90;;;;;;5093363;28;20389;-73
2021/06/15 11:50:45;;;;;;;3.05;2.80;;;49.60;30.90;;;;;;5090430;28;20047;-76
2021/06/15 11:53:19;;;;;;;5.00;2.92;;;49.60;30.80;;;;;;5087278;28;20503;-71
2021/06/15 11:55:52;;;;;;;4.72;2.90;;;49.60;30.70;;;;;;5086995;28;20076;-74
2021/06/15 11:58:27;;;;;;;4.43;2.70;;;49.70;30.80;;;;;;5091603;28;20039;-73
2021/06/15 12:01:04;;;;;;;3.05;2.75;;;49.80;30.80;;;;;;5079690;28;20052;-74
2021/06/15 12:03:36;;;;;;;6.63;2.78;;;49.90;30.60;;;;;;5076083;28;20037;-72
2021/06/15 12:06:02;;;;;;;;;;;50.00;30.70;;;;;;5073513;28;20035;-74
2021/06/15 12:08:36;;;;;;;3.33;3.03;;;50.10;31.90;;;;;;5079214;28;19904;-73
2021/06/15 12:11:03;;;;;;;3.55;2.60;;;50.20;30.80;;;;;;5092592;28;20047;-72
2021/06/15 12:13:30;;;;;;;4.78;2.85;;;50.20;30.80;;;;;;5092442;28;20075;-73
2021/06/15 12:16:16;;;;;;;4.03;3.00;;;50.20;30.70;;;;;;5093261;28;20458;-72
2021/06/15 12:18:44;;;;;;;2.97;2.60;;;50.20;30.60;;;;;;5092568;28;20105;-72
2021/06/15 12:21:35;;;;;;;3.67;3.22;;;50.20;30.50;;;;;;5093019;28;20036;-72
2021/06/15 12:24:04;;;;;;;3.03;2.83;;;49.40;30.50;;;;;;5081751;28;20384;-72
2021/06/15 12:26:35;;;;;;;3.70;2.85;;;49.30;30.70;;;;;;5072911;28;20060;-72
2021/06/15 12:29:03;;;;;;;5.72;3.20;;;49.30;30.60;;;;;;5088258;28;20024;-73
2021/06/15 12:31:37;;;;;;;6.53;3.30;;;49.50;31.00;;;;;;5071770;28;20032;-73
2021/06/15 12:34:08;;;;;;;4.88;2.85;;;49.70;30.80;;;;;;5072013;28;20028;-72
2021/06/15 12:36:36;;;;;;;6.53;2.90;;;49.90;30.60;;;;;;5072516;28;20028;-73
2021/06/15 12:39:13;;;;;;;3.10;2.88;;;49.70;30.50;;;;;;5071619;28;20466;-72
2021/06/15 12:41:41;;;;;;;2.97;2.75;;;49.50;30.40;;;;;;5072383;28;20029;-72
2021/06/15 12:44:08;;;;;;;6.97;3.13;;;49.60;30.50;;;;;;5072475;28;20025;-72
2021/06/15 12:46:36;;;;;;;3.30;3.10;;;49.60;30.70;;;;;;5072644;28;20032;-72
2021/06/15 12:49:15;;;;;;;16.25;4.38;;;49.60;31.00;;;;;;5072904;28;20032;-72
2021/06/15 12:51:50;;;;;;;36.22;4.85;;;48.50;31.30;;;;;;5072732;28;20025;-72
2021/06/15 12:54:28;;;;;;;4.72;2.70;;;46.20;32.00;;;;;;5072162;28;20490;-72
2021/06/15 12:56:59;;;;;;;10.95;3.55;;;44.00;33.30;;;;;;5072703;28;20029;-72
2021/06/15 12:59:25;;;;;;;6.07;3.00;;;42.30;34.40;;;;;;5071609;28;20146;-80
2021/06/15 13:01:53;;;;;;;14.52;4.10;;;40.90;35.60;;;;;;5071476;28;20024;-73